Owensboro, KY (42301)

8:26 AM CDT on April 23, 2017 (GMT -0500)
Thoroughbred Acres | | Change Station

Elev 404 ft 37.75 °N, 87.14 °W | Updated 4 seconds ago

Partly Cloudy
Partly Cloudy
49.6 °F
Feels Like 46 °F
N
9.2
Wind Variable Wind from NNE
Gusts 15.0 mph

Today
High -- | Low -- °F
--% Chance of Precip.
Yesterday
High -- | Low -- °F
Precip. -- in
Pressure 30.01 in
Visibility 10.0 miles
Clouds Few 11000 ft
Windchill 46 °F
Dew Point 39 °F
Humidity 66%
Rainfall 0.00 in
Snow Depth Not available.
6:02 AM 7:31 PM
Waning Crescent, 12% visible
METAR KOWB 231256Z 04012KT 10SM FEW110 09/04 A2996 RMK AO2 SLP160 T00890039
Pressure 30.01 in
Visibility 10.0 miles
Clouds Few 11000 ft
Windchill 46 °F
Dew Point 39 °F
Humidity 66%
Rainfall 0.00 in
Snow Depth Not available.
6:02 AM 7:31 PM
Waning Crescent, 12% visible
METAR KOWB 231256Z 04012KT 10SM FEW110 09/04 A2996 RMK AO2 SLP160 T00890039

Get Severe Weather Alerts

Thanks for signing up!

Be on the lookout for a verification email in your inbox.

You'll start receiving the daily forecast at 8 AM.

×

10-Day Weather Forecast

Almanac

Astronomy

Apr. 23, 2017 Rise Set
Actual Time
Civil Twilight
Nautical Twilight
Astronomical Twilight
Moon
Length of Visible Light
Length of Day
Tomorrow will be .
, % of the Moon is Illuminated

Today's Extremes

State Highs State Lows

Community

WunderPhotos

WunderBlog® & News

Nearby

Air Quality

  Air Quality AQ Index Pollutant
Not available.

Snow Depth

Station Depth Elevation

Earthquake Activity

City Distance Mag. Time & Date
Minimum magnitude displayed is 2.5.

Coastal Water Temperatures

Place Temperature

Stations

Nearby Weather Stations

Station Location Temp. Windchill Dew Point Humidity Wind Precip. Elev Updated Type
                   

Watches & Warnings

There are currently no watches in effect.